PWSweather.com
Personal Weather Stations
Station Observations
KCOBLACK1
Chalet Park, Black Hawk, CO 80422

Chalet ParkBlack Hawk, CO 80422

Lat: 39.8294, Lon: -105.48

Elevation: 9370

Station Type: Vantage Pro2

http://www.oscaranddeb.com/weather

Latest ConditionsUpdated 9:15:06 AM MST Sunday, Jan 25, 2015
Currently Today's Max Today's Min Today's Average
Temperature 31.0°F-0.6°C 31.1°F-0.5°C 26.1°F-3.3°C 28.1°F-2.2°C
Dew Point 21.6°F-5.8°C 22.0°F-5.6°C 20.0°F-6.7°C 21.0°F-6.1°C
Winds 7.0 mph W11.3 kmh W 41.0 mph WSW66.0 kmh WSW - 14.7 mph 23.7 kmh
Wind Gusts 24.0 mph38.6 kmh 56.0 mph90.1 kmh - -
Humidity 68% 84% 68% 75%
Pressure 30.19 in1022.4 mb 30.19 in1022.4 mb 30.04 in1017.3 mb -
Hour Temp Dew Point Humidity Winds Wind Gusts Pressure Precip Precip Rate Daily Precip Total
09:15 AM 31.0°F-0.6°C 21.6°F-5.8°C 68% 7.0 mph W11.3 kmh W 24.0 mph38.6 kmh 30.19 in1022.4 mb 0.00 in0.0 mm 0.00 in/hr0.0 mm/hr 0.00 in0.0 mm
09:10 AM 31.1°F-0.5°C 21.7°F-5.7°C 68% 15.0 mph NW24.1 kmh NW 29.0 mph46.7 kmh 30.19 in1022.4 mb 0.00 in0.0 mm 0.00 in/hr0.0 mm/hr 0.00 in0.0 mm
09:05 AM 31.0°F-0.6°C 21.6°F-5.8°C 68% 6.0 mph N9.7 kmh N 28.0 mph45.1 kmh 30.19 in1022.4 mb 0.00 in0.0 mm 0.00 in/hr0.0 mm/hr 0.00 in0.0 mm
09:00 AM 30.8°F-0.7°C 21.5°F-5.8°C 68% 7.0 mph W11.3 kmh W 24.0 mph38.6 kmh 30.17 in1021.7 mb 0.00 in0.0 mm 0.00 in/hr0.0 mm/hr 0.00 in0.0 mm
08:55 AM 30.6°F-0.8°C 21.6°F-5.8°C 69% 14.0 mph W22.5 kmh W 43.0 mph69.2 kmh 30.17 in1021.7 mb 0.00 in0.0 mm 0.00 in/hr0.0 mm/hr 0.00 in0.0 mm
08:50 AM 30.4°F-0.9°C 21.8°F-5.7°C 70% 9.0 mph NW14.5 kmh NW 37.0 mph59.5 kmh 30.15 in1021.0 mb 0.00 in0.0 mm 0.00 in/hr0.0 mm/hr 0.00 in0.0 mm
08:45 AM 30.2°F-1.0°C 21.6°F-5.8°C 70% 22.0 mph NW35.4 kmh NW 40.0 mph64.4 kmh 30.16 in1021.3 mb 0.00 in0.0 mm 0.00 in/hr0.0 mm/hr 0.00 in0.0 mm
08:40 AM 30.1°F-1.1°C 21.8°F-5.7°C 71% 8.0 mph WNW12.9 kmh WNW 38.0 mph61.2 kmh 30.17 in1021.7 mb 0.00 in0.0 mm 0.00 in/hr0.0 mm/hr 0.00 in0.0 mm
08:35 AM 29.9°F-1.2°C 21.6°F-5.8°C 71% 27.0 mph NNW43.5 kmh NNW 36.0 mph57.9 kmh 30.16 in1021.3 mb 0.00 in0.0 mm 0.00 in/hr0.0 mm/hr 0.00 in0.0 mm
08:30 AM 29.8°F-1.2°C 21.8°F-5.7°C 72% 7.0 mph W11.3 kmh W 28.0 mph45.1 kmh 30.15 in1021.0 mb 0.00 in0.0 mm 0.00 in/hr0.0 mm/hr 0.00 in0.0 mm
08:25 AM 29.6°F-1.3°C 21.7°F-5.7°C 72% 15.0 mph SW24.1 kmh SW 33.0 mph53.1 kmh 30.15 in1021.0 mb 0.00 in0.0 mm 0.00 in/hr0.0 mm/hr 0.00 in0.0 mm
08:20 AM 29.5°F-1.4°C 21.6°F-5.8°C 72% 17.0 mph WSW27.4 kmh WSW 43.0 mph69.2 kmh 30.15 in1021.0 mb 0.00 in0.0 mm 0.00 in/hr0.0 mm/hr 0.00 in0.0 mm
08:15 AM 29.6°F-1.3°C 21.3°F-5.9°C 71% 14.0 mph WNW22.5 kmh WNW 34.0 mph54.7 kmh 30.16 in1021.3 mb 0.00 in0.0 mm 0.00 in/hr0.0 mm/hr 0.00 in0.0 mm
08:10 AM 29.7°F-1.3°C 21.1°F-6.1°C 70% 13.0 mph WSW20.9 kmh WSW 39.0 mph62.8 kmh 30.12 in1020.0 mb 0.00 in0.0 mm 0.00 in/hr0.0 mm/hr 0.00 in0.0 mm
08:05 AM 29.8°F-1.2°C 21.2°F-6.0°C 70% 12.0 mph W19.3 kmh W 41.0 mph66.0 kmh 30.15 in1021.0 mb 0.00 in0.0 mm 0.00 in/hr0.0 mm/hr 0.00 in0.0 mm
08:00 AM 29.8°F-1.2°C 21.2°F-6.0°C 70% 8.0 mph WSW12.9 kmh WSW 45.0 mph72.4 kmh 30.14 in1020.7 mb 0.00 in0.0 mm 0.00 in/hr0.0 mm/hr 0.00 in0.0 mm
07:55 AM 29.7°F-1.3°C 21.4°F-5.9°C 71% 20.0 mph WSW32.2 kmh WSW 33.0 mph53.1 kmh 30.14 in1020.7 mb 0.00 in0.0 mm 0.00 in/hr0.0 mm/hr 0.00 in0.0 mm
07:50 AM 29.5°F-1.4°C 21.2°F-6.0°C 71% 12.0 mph WSW19.3 kmh WSW 32.0 mph51.5 kmh 30.14 in1020.7 mb 0.00 in0.0 mm 0.00 in/hr0.0 mm/hr 0.00 in0.0 mm
07:45 AM 29.4°F-1.4°C 21.1°F-6.1°C 71% 4.0 mph WNW6.4 kmh WNW 34.0 mph54.7 kmh 30.14 in1020.7 mb 0.00 in0.0 mm 0.00 in/hr0.0 mm/hr 0.00 in0.0 mm
07:40 AM 29.4°F-1.4°C 21.1°F-6.1°C 71% 20.0 mph WNW32.2 kmh WNW 44.0 mph70.8 kmh 30.13 in1020.3 mb 0.00 in0.0 mm 0.00 in/hr0.0 mm/hr 0.00 in0.0 mm
07:35 AM 29.1°F-1.6°C 21.2°F-6.0°C 72% 25.0 mph NW40.2 kmh NW 37.0 mph59.5 kmh 30.12 in1020.0 mb 0.00 in0.0 mm 0.00 in/hr0.0 mm/hr 0.00 in0.0 mm
07:30 AM 29.1°F-1.6°C 21.5°F-5.8°C 73% 7.0 mph SW11.3 kmh SW 43.0 mph69.2 kmh 30.13 in1020.3 mb 0.00 in0.0 mm 0.00 in/hr0.0 mm/hr 0.00 in0.0 mm
07:25 AM 29.0°F-1.7°C 21.4°F-5.9°C 73% 19.0 mph NW30.6 kmh NW 31.0 mph49.9 kmh 30.14 in1020.7 mb 0.00 in0.0 mm 0.00 in/hr0.0 mm/hr 0.00 in0.0 mm
07:20 AM 28.8°F-1.8°C 21.2°F-6.0°C 73% 11.0 mph SW17.7 kmh SW 26.0 mph41.8 kmh 30.12 in1020.0 mb 0.00 in0.0 mm 0.00 in/hr0.0 mm/hr 0.00 in0.0 mm
07:15 AM 28.8°F-1.8°C 21.2°F-6.0°C 73% 7.0 mph NW11.3 kmh NW 31.0 mph49.9 kmh 30.12 in1020.0 mb 0.00 in0.0 mm 0.00 in/hr0.0 mm/hr 0.00 in0.0 mm
07:10 AM 28.7°F-1.8°C 21.1°F-6.1°C 73% 11.0 mph NW17.7 kmh NW 23.0 mph37.0 kmh 30.12 in1020.0 mb 0.00 in0.0 mm 0.00 in/hr0.0 mm/hr 0.00 in0.0 mm
07:05 AM 28.7°F-1.8°C 21.1°F-6.1°C 73% 11.0 mph WSW17.7 kmh WSW 22.0 mph35.4 kmh 30.14 in1020.7 mb 0.00 in0.0 mm 0.00 in/hr0.0 mm/hr 0.00 in0.0 mm
07:00 AM 28.8°F-1.8°C 20.9°F-6.2°C 72% 5.0 mph WSW8.0 kmh WSW 34.0 mph54.7 kmh 30.14 in1020.7 mb 0.00 in0.0 mm 0.00 in/hr0.0 mm/hr 0.00 in0.0 mm
06:55 AM 28.7°F-1.8°C 21.1°F-6.1°C 73% 21.0 mph NW33.8 kmh NW 35.0 mph56.3 kmh 30.12 in1020.0 mb 0.00 in0.0 mm 0.00 in/hr0.0 mm/hr 0.00 in0.0 mm
06:50 AM 28.7°F-1.8°C 21.1°F-6.1°C 73% 5.0 mph NW8.0 kmh NW 34.0 mph54.7 kmh 30.12 in1020.0 mb 0.00 in0.0 mm 0.00 in/hr0.0 mm/hr 0.00 in0.0 mm
06:45 AM 28.7°F-1.8°C 21.1°F-6.1°C 73% 17.0 mph WNW27.4 kmh WNW 35.0 mph56.3 kmh 30.13 in1020.3 mb 0.00 in0.0 mm 0.00 in/hr0.0 mm/hr 0.00 in0.0 mm
06:40 AM 28.9°F-1.7°C 21.0°F-6.1°C 72% 11.0 mph W17.7 kmh W 46.0 mph74.0 kmh 30.12 in1020.0 mb 0.00 in0.0 mm 0.00 in/hr0.0 mm/hr 0.00 in0.0 mm
06:35 AM 29.0°F-1.7°C 20.7°F-6.3°C 71% 5.0 mph WNW8.0 kmh WNW 41.0 mph66.0 kmh 30.11 in1019.6 mb 0.00 in0.0 mm 0.00 in/hr0.0 mm/hr 0.00 in0.0 mm
06:30 AM 28.8°F-1.8°C 20.9°F-6.2°C 72% 10.0 mph WSW16.1 kmh WSW 40.0 mph64.4 kmh 30.11 in1019.6 mb 0.00 in0.0 mm 0.00 in/hr0.0 mm/hr 0.00 in0.0 mm
06:25 AM 28.7°F-1.8°C 20.5°F-6.4°C 71% 9.0 mph W14.5 kmh W 33.0 mph53.1 kmh 30.12 in1020.0 mb 0.00 in0.0 mm 0.00 in/hr0.0 mm/hr 0.00 in0.0 mm
06:20 AM 28.5°F-1.9°C 20.6°F-6.3°C 72% 9.0 mph W14.5 kmh W 35.0 mph56.3 kmh 30.11 in1019.6 mb 0.00 in0.0 mm 0.00 in/hr0.0 mm/hr 0.00 in0.0 mm
06:15 AM 28.6°F-1.9°C 20.7°F-6.3°C 72% 24.0 mph NW38.6 kmh NW 34.0 mph54.7 kmh 30.11 in1019.6 mb 0.00 in0.0 mm 0.00 in/hr0.0 mm/hr 0.00 in0.0 mm
06:10 AM 28.6°F-1.9°C 20.7°F-6.3°C 72% 10.0 mph W16.1 kmh W 35.0 mph56.3 kmh 30.11 in1019.6 mb 0.00 in0.0 mm 0.00 in/hr0.0 mm/hr 0.00 in0.0 mm
06:05 AM 28.4°F-2.0°C 20.8°F-6.2°C 73% 2.0 mph WNW3.2 kmh WNW 27.0 mph43.5 kmh 30.12 in1020.0 mb 0.00 in0.0 mm 0.00 in/hr0.0 mm/hr 0.00 in0.0 mm
06:00 AM 28.6°F-1.9°C 20.7°F-6.3°C 72% 8.0 mph NW12.9 kmh NW 51.0 mph82.1 kmh 30.11 in1019.6 mb 0.00 in0.0 mm 0.00 in/hr0.0 mm/hr 0.00 in0.0 mm
05:55 AM 28.5°F-1.9°C 20.6°F-6.3°C 72% 10.0 mph WSW16.1 kmh WSW 38.0 mph61.2 kmh 30.11 in1019.6 mb 0.00 in0.0 mm 0.00 in/hr0.0 mm/hr 0.00 in0.0 mm
05:50 AM 28.5°F-1.9°C 20.6°F-6.3°C 72% 20.0 mph W32.2 kmh W 34.0 mph54.7 kmh 30.11 in1019.6 mb 0.00 in0.0 mm 0.00 in/hr0.0 mm/hr 0.00 in0.0 mm
05:45 AM 28.4°F-2.0°C 20.5°F-6.4°C 72% 8.0 mph SW12.9 kmh SW 43.0 mph69.2 kmh 30.11 in1019.6 mb 0.00 in0.0 mm 0.00 in/hr0.0 mm/hr 0.00 in0.0 mm
05:40 AM 28.4°F-2.0°C 20.5°F-6.4°C 72% 17.0 mph SW27.4 kmh SW 41.0 mph66.0 kmh 30.10 in1019.3 mb 0.00 in0.0 mm 0.00 in/hr0.0 mm/hr 0.00 in0.0 mm
05:35 AM 28.4°F-2.0°C 20.8°F-6.2°C 73% 13.0 mph W20.9 kmh W 42.0 mph67.6 kmh 30.10 in1019.3 mb 0.00 in0.0 mm 0.00 in/hr0.0 mm/hr 0.00 in0.0 mm
05:30 AM 28.3°F-2.1°C 20.4°F-6.4°C 72% 10.0 mph WSW16.1 kmh WSW 44.0 mph70.8 kmh 30.10 in1019.3 mb 0.00 in0.0 mm 0.00 in/hr0.0 mm/hr 0.00 in0.0 mm
05:25 AM 28.1°F-2.2°C 20.9°F-6.2°C 74% 12.0 mph WSW19.3 kmh WSW 44.0 mph70.8 kmh 30.09 in1019.0 mb 0.00 in0.0 mm 0.00 in/hr0.0 mm/hr 0.00 in0.0 mm
05:20 AM 28.0°F-2.2°C 21.1°F-6.1°C 75% 6.0 mph NW9.7 kmh NW 36.0 mph57.9 kmh 30.07 in1018.3 mb 0.00 in0.0 mm 0.00 in/hr0.0 mm/hr 0.00 in0.0 mm
05:15 AM 28.1°F-2.2°C 20.5°F-6.4°C 73% 34.0 mph W54.7 kmh W 39.0 mph62.8 kmh 30.08 in1018.6 mb 0.00 in0.0 mm 0.00 in/hr0.0 mm/hr 0.00 in0.0 mm
05:10 AM 28.2°F-2.1°C 20.6°F-6.3°C 73% 19.0 mph SW30.6 kmh SW 38.0 mph61.2 kmh 30.08 in1018.6 mb 0.00 in0.0 mm 0.00 in/hr0.0 mm/hr 0.00 in0.0 mm
05:05 AM 27.9°F-2.3°C 20.7°F-6.3°C 74% 21.0 mph W33.8 kmh W 38.0 mph61.2 kmh 30.08 in1018.6 mb 0.00 in0.0 mm 0.00 in/hr0.0 mm/hr 0.00 in0.0 mm
05:00 AM 27.6°F-2.4°C 21.0°F-6.1°C 76% 21.0 mph W33.8 kmh W 36.0 mph57.9 kmh 30.07 in1018.3 mb 0.00 in0.0 mm 0.00 in/hr0.0 mm/hr 0.00 in0.0 mm
04:55 AM 27.7°F-2.4°C 21.1°F-6.1°C 76% 15.0 mph SW24.1 kmh SW 39.0 mph62.8 kmh 30.08 in1018.6 mb 0.00 in0.0 mm 0.00 in/hr0.0 mm/hr 0.00 in0.0 mm
04:50 AM 27.8°F-2.3°C 21.2°F-6.0°C 76% 30.0 mph NW48.3 kmh NW 30.0 mph48.3 kmh 30.09 in1019.0 mb 0.00 in0.0 mm 0.00 in/hr0.0 mm/hr 0.00 in0.0 mm
04:45 AM 27.9°F-2.3°C 21.0°F-6.1°C 75% 14.0 mph WNW22.5 kmh WNW 48.0 mph77.2 kmh 30.08 in1018.6 mb 0.00 in0.0 mm 0.00 in/hr0.0 mm/hr 0.00 in0.0 mm
04:40 AM 27.9°F-2.3°C 21.0°F-6.1°C 75% 40.0 mph WSW64.4 kmh WSW 44.0 mph70.8 kmh 30.05 in1017.6 mb 0.00 in0.0 mm 0.00 in/hr0.0 mm/hr 0.00 in0.0 mm
04:35 AM 27.6°F-2.4°C 21.0°F-6.1°C 76% 12.0 mph WSW19.3 kmh WSW 38.0 mph61.2 kmh 30.08 in1018.6 mb 0.00 in0.0 mm 0.00 in/hr0.0 mm/hr 0.00 in0.0 mm
04:30 AM 27.4°F-2.6°C 21.4°F-5.9°C 78% 10.0 mph WSW16.1 kmh WSW 37.0 mph59.5 kmh 30.07 in1018.3 mb 0.00 in0.0 mm 0.00 in/hr0.0 mm/hr 0.00 in0.0 mm
04:25 AM 26.8°F-2.9°C 21.7°F-5.7°C 81% 16.0 mph WNW25.7 kmh WNW 39.0 mph62.8 kmh 30.09 in1019.0 mb 0.00 in0.0 mm 0.00 in/hr0.0 mm/hr 0.00 in0.0 mm
04:20 AM 26.2°F-3.2°C 22.0°F-5.6°C 84% 23.0 mph NW37.0 kmh NW 34.0 mph54.7 kmh 30.10 in1019.3 mb 0.00 in0.0 mm 0.00 in/hr0.0 mm/hr 0.00 in0.0 mm
04:15 AM 26.1°F-3.3°C 21.9°F-5.6°C 84% 11.0 mph WNW17.7 kmh WNW 38.0 mph61.2 kmh 30.10 in1019.3 mb 0.00 in0.0 mm 0.00 in/hr0.0 mm/hr 0.00 in0.0 mm
04:10 AM 26.2°F-3.2°C 22.0°F-5.6°C 84% 9.0 mph W14.5 kmh W 38.0 mph61.2 kmh 30.10 in1019.3 mb 0.00 in0.0 mm 0.00 in/hr0.0 mm/hr 0.00 in0.0 mm
04:05 AM 26.2°F-3.2°C 22.0°F-5.6°C 84% 26.0 mph W41.8 kmh W 40.0 mph64.4 kmh 30.08 in1018.6 mb 0.00 in0.0 mm 0.00 in/hr0.0 mm/hr 0.00 in0.0 mm
04:00 AM 26.2°F-3.2°C 21.7°F-5.7°C 83% 17.0 mph W27.4 kmh W 31.0 mph49.9 kmh 30.09 in1019.0 mb 0.00 in0.0 mm 0.00 in/hr0.0 mm/hr 0.00 in0.0 mm
03:55 AM 26.1°F-3.3°C 21.6°F-5.8°C 83% 3.0 mph WNW4.8 kmh WNW 24.0 mph38.6 kmh 30.09 in1019.0 mb 0.00 in0.0 mm 0.00 in/hr0.0 mm/hr 0.00 in0.0 mm
03:50 AM 26.3°F-3.2°C 21.5°F-5.8°C 82% 6.0 mph W9.7 kmh W 23.0 mph37.0 kmh 30.10 in1019.3 mb 0.00 in0.0 mm 0.00 in/hr0.0 mm/hr 0.00 in0.0 mm
03:45 AM 26.4°F-3.1°C 21.6°F-5.8°C 82% 14.0 mph W22.5 kmh W 30.0 mph48.3 kmh 30.10 in1019.3 mb 0.00 in0.0 mm 0.00 in/hr0.0 mm/hr 0.00 in0.0 mm
03:40 AM 26.7°F-2.9°C 21.6°F-5.8°C 81% 14.0 mph W22.5 kmh W 26.0 mph41.8 kmh 30.10 in1019.3 mb 0.00 in0.0 mm 0.00 in/hr0.0 mm/hr 0.00 in0.0 mm
03:35 AM 27.0°F-2.8°C 21.6°F-5.8°C 80% 11.0 mph W17.7 kmh W 32.0 mph51.5 kmh 30.10 in1019.3 mb 0.00 in0.0 mm 0.00 in/hr0.0 mm/hr 0.00 in0.0 mm
03:30 AM 27.4°F-2.6°C 21.7°F-5.7°C 79% 9.0 mph NW14.5 kmh NW 41.0 mph66.0 kmh 30.10 in1019.3 mb 0.00 in0.0 mm 0.00 in/hr0.0 mm/hr 0.00 in0.0 mm
03:25 AM 28.0°F-2.2°C 21.1°F-6.1°C 75% 13.0 mph W20.9 kmh W 30.0 mph48.3 kmh 30.10 in1019.3 mb 0.00 in0.0 mm 0.00 in/hr0.0 mm/hr 0.00 in0.0 mm
03:20 AM 28.1°F-2.2°C 20.9°F-6.2°C 74% 14.0 mph W22.5 kmh W 30.0 mph48.3 kmh 30.10 in1019.3 mb 0.00 in0.0 mm 0.00 in/hr0.0 mm/hr 0.00 in0.0 mm
03:15 AM 28.3°F-2.1°C 20.4°F-6.4°C 72% 5.0 mph NW8.0 kmh NW 35.0 mph56.3 kmh 30.09 in1019.0 mb 0.00 in0.0 mm 0.00 in/hr0.0 mm/hr 0.00 in0.0 mm
03:10 AM 28.0°F-2.2°C 20.8°F-6.2°C 74% 13.0 mph WSW20.9 kmh WSW 23.0 mph37.0 kmh 30.09 in1019.0 mb 0.00 in0.0 mm 0.00 in/hr0.0 mm/hr 0.00 in0.0 mm
03:05 AM 27.8°F-2.3°C 20.9°F-6.2°C 75% 4.0 mph SW6.4 kmh SW 35.0 mph56.3 kmh 30.09 in1019.0 mb 0.00 in0.0 mm 0.00 in/hr0.0 mm/hr 0.00 in0.0 mm
03:00 AM 27.8°F-2.3°C 20.9°F-6.2°C 75% 12.0 mph NW19.3 kmh NW 22.0 mph35.4 kmh 30.08 in1018.6 mb 0.00 in0.0 mm 0.00 in/hr0.0 mm/hr 0.00 in0.0 mm
02:55 AM 27.8°F-2.3°C 20.9°F-6.2°C 75% 20.0 mph WSW32.2 kmh WSW 31.0 mph49.9 kmh 30.07 in1018.3 mb 0.00 in0.0 mm 0.00 in/hr0.0 mm/hr 0.00 in0.0 mm
02:50 AM 27.6°F-2.4°C 21.0°F-6.1°C 76% 9.0 mph W14.5 kmh W 37.0 mph59.5 kmh 30.07 in1018.3 mb 0.00 in0.0 mm 0.00 in/hr0.0 mm/hr 0.00 in0.0 mm
02:45 AM 27.7°F-2.4°C 21.1°F-6.1°C 76% 26.0 mph NW41.8 kmh NW 39.0 mph62.8 kmh 30.07 in1018.3 mb 0.00 in0.0 mm 0.00 in/hr0.0 mm/hr 0.00 in0.0 mm
02:40 AM 27.6°F-2.4°C 20.7°F-6.3°C 75% 11.0 mph WNW17.7 kmh WNW 33.0 mph53.1 kmh 30.07 in1018.3 mb 0.00 in0.0 mm 0.00 in/hr0.0 mm/hr 0.00 in0.0 mm
02:35 AM 27.3°F-2.6°C 21.0°F-6.1°C 77% 26.0 mph W41.8 kmh W 37.0 mph59.5 kmh 30.07 in1018.3 mb 0.00 in0.0 mm 0.00 in/hr0.0 mm/hr 0.00 in0.0 mm
02:30 AM 27.1°F-2.7°C 21.1°F-6.1°C 78% 12.0 mph WSW19.3 kmh WSW 25.0 mph40.2 kmh 30.07 in1018.3 mb 0.00 in0.0 mm 0.00 in/hr0.0 mm/hr 0.00 in0.0 mm
02:25 AM 27.0°F-2.8°C 21.0°F-6.1°C 78% 7.0 mph WSW11.3 kmh WSW 31.0 mph49.9 kmh 30.07 in1018.3 mb 0.00 in0.0 mm 0.00 in/hr0.0 mm/hr 0.00 in0.0 mm
02:20 AM 26.9°F-2.8°C 21.2°F-6.0°C 79% 25.0 mph SW40.2 kmh SW 40.0 mph64.4 kmh 30.07 in1018.3 mb 0.00 in0.0 mm 0.00 in/hr0.0 mm/hr 0.00 in0.0 mm
02:15 AM 26.9°F-2.8°C 21.2°F-6.0°C 79% 4.0 mph W6.4 kmh W 37.0 mph59.5 kmh 30.06 in1017.9 mb 0.00 in0.0 mm 0.00 in/hr0.0 mm/hr 0.00 in0.0 mm
02:10 AM 26.8°F-2.9°C 21.1°F-6.1°C 79% 25.0 mph W40.2 kmh W 45.0 mph72.4 kmh 30.07 in1018.3 mb 0.00 in0.0 mm 0.00 in/hr0.0 mm/hr 0.00 in0.0 mm
02:05 AM 26.8°F-2.9°C 21.1°F-6.1°C 79% 17.0 mph W27.4 kmh W 41.0 mph66.0 kmh 30.06 in1017.9 mb 0.00 in0.0 mm 0.00 in/hr0.0 mm/hr 0.00 in0.0 mm
02:00 AM 26.8°F-2.9°C 21.1°F-6.1°C 79% 37.0 mph W59.5 kmh W 46.0 mph74.0 kmh 30.06 in1017.9 mb 0.00 in0.0 mm 0.00 in/hr0.0 mm/hr 0.00 in0.0 mm
01:55 AM 27.0°F-2.8°C 21.0°F-6.1°C 78% 34.0 mph W54.7 kmh W 56.0 mph90.1 kmh 30.05 in1017.6 mb 0.00 in0.0 mm 0.00 in/hr0.0 mm/hr 0.00 in0.0 mm
01:50 AM 26.9°F-2.8°C 20.9°F-6.2°C 78% 3.0 mph SW4.8 kmh SW 41.0 mph66.0 kmh 30.05 in1017.6 mb 0.00 in0.0 mm 0.00 in/hr0.0 mm/hr 0.00 in0.0 mm
01:45 AM 26.9°F-2.8°C 20.9°F-6.2°C 78% 41.0 mph WSW66.0 kmh WSW 49.0 mph78.9 kmh 30.04 in1017.3 mb 0.00 in0.0 mm 0.00 in/hr0.0 mm/hr 0.00 in0.0 mm
01:40 AM 27.0°F-2.8°C 20.7°F-6.3°C 77% 15.0 mph SSW24.1 kmh SSW 50.0 mph80.5 kmh 30.05 in1017.6 mb 0.00 in0.0 mm 0.00 in/hr0.0 mm/hr 0.00 in0.0 mm
01:35 AM 26.9°F-2.8°C 20.6°F-6.3°C 77% 33.0 mph SW53.1 kmh SW 53.0 mph85.3 kmh 30.04 in1017.3 mb 0.00 in0.0 mm 0.00 in/hr0.0 mm/hr 0.00 in0.0 mm
01:30 AM 27.0°F-2.8°C 20.7°F-6.3°C 77% 23.0 mph WSW37.0 kmh WSW 53.0 mph85.3 kmh 30.05 in1017.6 mb 0.00 in0.0 mm 0.00 in/hr0.0 mm/hr 0.00 in0.0 mm
01:25 AM 27.2°F-2.7°C 20.6°F-6.3°C 76% 31.0 mph SSW49.9 kmh SSW 42.0 mph67.6 kmh 30.06 in1017.9 mb 0.00 in0.0 mm 0.00 in/hr0.0 mm/hr 0.00 in0.0 mm
01:20 AM 27.2°F-2.7°C 20.6°F-6.3°C 76% 35.0 mph W56.3 kmh W 37.0 mph59.5 kmh 30.06 in1017.9 mb 0.00 in0.0 mm 0.00 in/hr0.0 mm/hr 0.00 in0.0 mm
01:15 AM 27.2°F-2.7°C 20.6°F-6.3°C 76% 9.0 mph WNW14.5 kmh WNW 36.0 mph57.9 kmh 30.08 in1018.6 mb 0.00 in0.0 mm 0.00 in/hr0.0 mm/hr 0.00 in0.0 mm
01:10 AM 27.5°F-2.5°C 20.6°F-6.3°C 75% 10.0 mph WNW16.1 kmh WNW 33.0 mph53.1 kmh 30.08 in1018.6 mb 0.00 in0.0 mm 0.00 in/hr0.0 mm/hr 0.00 in0.0 mm
01:05 AM 27.5°F-2.5°C 20.9°F-6.2°C 76% 16.0 mph WSW25.7 kmh WSW 37.0 mph59.5 kmh 30.08 in1018.6 mb 0.00 in0.0 mm 0.00 in/hr0.0 mm/hr 0.00 in0.0 mm
01:00 AM 27.8°F-2.3°C 20.9°F-6.2°C 75% 5.0 mph WNW8.0 kmh WNW 42.0 mph67.6 kmh 30.09 in1019.0 mb 0.00 in0.0 mm 0.00 in/hr0.0 mm/hr 0.00 in0.0 mm
12:55 AM 27.9°F-2.3°C 20.7°F-6.3°C 74% 16.0 mph WNW25.7 kmh WNW 40.0 mph64.4 kmh 30.08 in1018.6 mb 0.00 in0.0 mm 0.00 in/hr0.0 mm/hr 0.00 in0.0 mm
12:50 AM 27.7°F-2.4°C 20.5°F-6.4°C 74% 13.0 mph WNW20.9 kmh WNW 22.0 mph35.4 kmh 30.09 in1019.0 mb 0.00 in0.0 mm 0.00 in/hr0.0 mm/hr 0.00 in0.0 mm
12:45 AM 27.7°F-2.4°C 20.5°F-6.4°C 74% 6.0 mph W9.7 kmh W 45.0 mph72.4 kmh 30.09 in1019.0 mb 0.00 in0.0 mm 0.00 in/hr0.0 mm/hr 0.00 in0.0 mm
12:40 AM 27.8°F-2.3°C 20.6°F-6.3°C 74% 16.0 mph W25.7 kmh W 45.0 mph72.4 kmh 30.09 in1019.0 mb 0.00 in0.0 mm 0.00 in/hr0.0 mm/hr 0.00 in0.0 mm
12:35 AM 27.9°F-2.3°C 20.3°F-6.5°C 73% 20.0 mph NNW32.2 kmh NNW 34.0 mph54.7 kmh 30.10 in1019.3 mb 0.00 in0.0 mm 0.00 in/hr0.0 mm/hr 0.00 in0.0 mm
12:30 AM 27.7°F-2.4°C 20.1°F-6.6°C 73% 17.0 mph W27.4 kmh W 22.0 mph35.4 kmh 30.10 in1019.3 mb 0.00 in0.0 mm 0.00 in/hr0.0 mm/hr 0.00 in0.0 mm
12:25 AM 27.8°F-2.3°C 20.2°F-6.6°C 73% 16.0 mph WSW25.7 kmh WSW 32.0 mph51.5 kmh 30.10 in1019.3 mb 0.00 in0.0 mm 0.00 in/hr0.0 mm/hr 0.00 in0.0 mm
12:20 AM 27.7°F-2.4°C 20.1°F-6.6°C 73% 9.0 mph W14.5 kmh W 24.0 mph38.6 kmh 30.11 in1019.6 mb 0.00 in0.0 mm 0.00 in/hr0.0 mm/hr 0.00 in0.0 mm
12:15 AM 27.7°F-2.4°C 20.1°F-6.6°C 73% 15.0 mph NNW24.1 kmh NNW 24.0 mph38.6 kmh 30.12 in1020.0 mb 0.00 in0.0 mm 0.00 in/hr0.0 mm/hr 0.00 in0.0 mm
12:10 AM 27.6°F-2.4°C 20.0°F-6.7°C 73% 13.0 mph SW20.9 kmh SW 13.0 mph20.9 kmh 30.13 in1020.3 mb 0.00 in0.0 mm 0.00 in/hr0.0 mm/hr 0.00 in0.0 mm
12:05 AM 27.6°F-2.4°C 20.0°F-6.7°C 73% 11.0 mph WNW17.7 kmh WNW 21.0 mph33.8 kmh 30.14 in1020.7 mb 0.00 in0.0 mm 0.00 in/hr0.0 mm/hr 0.00 in0.0 mm
12:00 AM 27.6°F-2.4°C 20.0°F-6.7°C 73% 1.0 mph SW1.6 kmh SW 19.0 mph30.6 kmh 30.14 in1020.7 mb 0.00 in0.0 mm 0.00 in/hr0.0 mm/hr 0.01 in0.3 mm